Time;durP1;ratioP1;P1;durP2;ratioP2;P2;SDS_P1;SDS_P2;PMS_P1;PMS_P2;Temp;Humidity;BMP_temperature;BMP_pressure;BME280_temperature;BME280_humidity;BME280_pressure;Samples;Min_cycle;Max_cycle;Signal;HPM_P1;HPM_P2
2022/07/22 00:01:17;;;;;;;6.57;4.45;;;;;;;;;;5002013;28;20034;-85
2022/07/22 00:03:43;;;;;;;5.65;4.03;;;;;;;;;;5002768;28;20033;-84
2022/07/22 00:06:08;;;;;;;7.10;4.90;;;;;;;;;;4997795;28;20041;-84
2022/07/22 00:08:33;;;;;;;6.75;4.50;;;;;;;;;;5016848;28;20042;-84
2022/07/22 00:10:59;;;;;;;6.05;4.20;;;;;;;;;;4997959;28;20485;-84
2022/07/22 00:13:24;;;;;;;6.20;4.40;;;;;;;;;;5001156;28;20118;-85
2022/07/22 00:15:52;;;;;;;8.02;4.60;;;;;;;;;;5002992;28;20034;-85
2022/07/22 00:18:18;;;;;;;6.38;4.43;;;;;;;;;;5008090;28;20485;-85
2022/07/22 00:20:43;;;;;;;6.50;4.30;;;;;;;;;;4998782;28;20078;-85
2022/07/22 00:23:08;;;;;;;5.55;4.25;;;;;;;;;;5009978;28;20029;-85
2022/07/22 00:25:34;;;;;;;6.90;4.53;;;;;;;;;;5007796;28;20095;-84
2022/07/22 00:27:59;;;;;;;6.18;4.20;;;;;;;;;;5001385;28;20496;-84
2022/07/22 00:30:25;;;;;;;5.78;4.15;;;;;;;;;;5013400;28;20516;-85
2022/07/22 00:32:51;;;;;;;8.43;4.43;;;;;;;;;;5017698;28;20111;-85
2022/07/22 00:35:16;;;;;;;6.20;4.07;;;;;;;;;;5001165;28;20038;-84
2022/07/22 00:37:42;;;;;;;7.32;4.50;;;;;;;;;;4997364;28;20033;-85
2022/07/22 00:40:08;;;;;;;6.07;3.97;;;;;;;;;;5013499;28;20045;-85
2022/07/22 00:42:34;;;;;;;5.82;4.15;;;;;;;;;;5007155;28;20041;-84
2022/07/22 00:44:59;;;;;;;7.43;4.35;;;;;;;;;;4999948;28;20081;-85
2022/07/22 00:47:24;;;;;;;5.63;4.35;;;;;;;;;;4998986;28;20033;-84
2022/07/22 00:49:50;;;;;;;8.18;4.43;;;;;;;;;;5000795;28;20046;-85
2022/07/22 00:52:15;;;;;;;5.45;3.90;;;;;;;;;;5002086;28;20028;-85
2022/07/22 00:54:41;;;;;;;6.35;4.30;;;;;;;;;;5014300;28;20040;-85
2022/07/22 00:57:06;;;;;;;6.40;4.53;;;;;;;;;;4994991;28;20855;-85
2022/07/22 00:59:32;;;;;;;5.65;3.72;;;;;;;;;;5000275;28;20073;-84
2022/07/22 01:01:58;;;;;;;6.78;4.28;;;;;;;;;;4983420;28;20478;-84
2022/07/22 01:04:23;;;;;;;6.05;4.15;;;;;;;;;;4986118;28;20030;-85
2022/07/22 01:06:48;;;;;;;5.97;4.00;;;;;;;;;;4994764;28;20113;-84
2022/07/22 01:09:14;;;;;;;5.65;4.05;;;;;;;;;;5013751;28;20076;-85
2022/07/22 01:11:40;;;;;;;5.57;4.05;;;;;;;;;;5015144;28;20037;-85
2022/07/22 01:14:05;;;;;;;6.22;4.22;;;;;;;;;;5000620;28;20034;-85
2022/07/22 01:16:31;;;;;;;6.07;4.15;;;;;;;;;;5000997;28;20056;-85
2022/07/22 01:18:56;;;;;;;5.53;3.72;;;;;;;;;;5012227;28;20129;-85
2022/07/22 01:21:22;;;;;;;6.47;3.80;;;;;;;;;;4999622;28;20092;-84
2022/07/22 01:23:48;;;;;;;5.07;3.65;;;;;;;;;;5005914;28;20043;-85
2022/07/22 01:26:13;;;;;;;4.93;3.38;;;;;;;;;;5012672;28;20040;-85
2022/07/22 01:28:39;;;;;;;6.38;3.60;;;;;;;;;;5016068;28;20033;-84
2022/07/22 01:31:05;;;;;;;4.57;3.47;;;;;;;;;;4998640;28;20034;-85
2022/07/22 01:33:30;;;;;;;6.32;3.53;;;;;;;;;;5007020;28;20069;-84
2022/07/22 01:35:55;;;;;;;4.97;3.13;;;;;;;;;;4995005;28;20060;-85
2022/07/22 01:38:22;;;;;;;5.00;3.47;;;;;;;;;;4983632;28;20084;-85
2022/07/22 01:40:47;;;;;;;6.32;3.15;;;;;;;;;;4993308;28;20085;-86
2022/07/22 01:43:17;;;;;;;4.85;3.08;;;;;;;;;;4999635;28;20527;-85
2022/07/22 01:45:44;;;;;;;6.60;3.60;;;;;;;;;;5012544;28;20539;-84
2022/07/22 01:48:09;;;;;;;4.67;3.20;;;;;;;;;;4998314;28;20044;-84
2022/07/22 01:50:35;;;;;;;4.75;3.22;;;;;;;;;;5006264;28;20053;-84
2022/07/22 01:53:00;;;;;;;5.53;3.22;;;;;;;;;;5013281;28;20094;-85
2022/07/22 01:55:25;;;;;;;6.00;3.80;;;;;;;;;;4998679;28;20133;-85
2022/07/22 01:57:51;;;;;;;4.28;3.00;;;;;;;;;;4995247;28;20042;-84
2022/07/22 02:00:16;;;;;;;4.57;3.22;;;;;;;;;;4985648;28;20113;-84
2022/07/22 02:02:42;;;;;;;4.70;2.95;;;;;;;;;;4998185;28;20033;-84
2022/07/22 02:05:08;;;;;;;4.63;2.75;;;;;;;;;;5006805;28;20137;-85
2022/07/22 02:07:33;;;;;;;4.82;3.15;;;;;;;;;;4995798;28;20122;-85
2022/07/22 02:09:59;;;;;;;5.03;3.30;;;;;;;;;;4983139;28;20081;-85
2022/07/22 02:12:24;;;;;;;4.70;3.00;;;;;;;;;;4998450;28;20052;-84
2022/07/22 02:14:49;;;;;;;5.10;3.33;;;;;;;;;;5016657;28;20432;-84
2022/07/22 02:17:15;;;;;;;5.00;3.33;;;;;;;;;;4998614;28;20076;-84
2022/07/22 02:19:41;;;;;;;5.00;3.30;;;;;;;;;;5010750;28;20037;-82
2022/07/22 02:22:07;;;;;;;18.88;4.03;;;;;;;;;;5000049;28;20117;-84
2022/07/22 02:24:32;;;;;;;4.53;3.08;;;;;;;;;;5014440;28;20048;-84
2022/07/22 02:26:58;;;;;;;5.78;3.40;;;;;;;;;;4999331;28;20756;-85
2022/07/22 02:29:26;;;;;;;4.95;3.47;;;;;;;;;;5002102;28;20072;-84
2022/07/22 02:31:51;;;;;;;7.20;3.80;;;;;;;;;;5011562;28;20101;-85
2022/07/22 02:34:17;;;;;;;4.95;3.53;;;;;;;;;;4999201;28;20477;-85
2022/07/22 02:36:42;;;;;;;5.03;3.42;;;;;;;;;;5006239;28;20037;-84
2022/07/22 02:39:07;;;;;;;5.03;3.65;;;;;;;;;;5002958;28;20041;-84
2022/07/22 02:41:33;;;;;;;5.32;3.65;;;;;;;;;;5005139;28;20038;-85
2022/07/22 02:43:58;;;;;;;4.85;3.38;;;;;;;;;;5001226;28;20048;-85
2022/07/22 02:46:25;;;;;;;5.93;4.07;;;;;;;;;;4999941;28;20026;-84
2022/07/22 02:48:51;;;;;;;6.20;4.13;;;;;;;;;;4998623;28;20552;-84
2022/07/22 02:51:16;;;;;;;6.07;4.45;;;;;;;;;;5011940;28;20030;-84
2022/07/22 02:53:42;;;;;;;7.25;4.43;;;;;;;;;;4998749;28;20041;-85
2022/07/22 02:56:08;;;;;;;6.35;4.30;;;;;;;;;;5011411;28;20045;-84
2022/07/22 02:58:33;;;;;;;7.30;4.55;;;;;;;;;;4999932;28;20481;-83
2022/07/22 03:00:58;;;;;;;6.50;4.30;;;;;;;;;;4998111;28;20053;-84
2022/07/22 03:03:24;;;;;;;5.80;4.22;;;;;;;;;;4998694;28;20060;-84
2022/07/22 03:05:49;;;;;;;6.75;4.68;;;;;;;;;;4980307;28;20054;-84
2022/07/22 03:08:15;;;;;;;6.60;4.25;;;;;;;;;;4997988;28;20044;-84
2022/07/22 03:10:41;;;;;;;6.45;4.57;;;;;;;;;;5003004;28;20072;-84
2022/07/22 03:13:06;;;;;;;8.38;5.13;;;;;;;;;;5002224;28;20030;-84
2022/07/22 03:15:32;;;;;;;7.50;4.63;;;;;;;;;;5001561;28;20547;-84
2022/07/22 03:17:57;;;;;;;6.70;4.38;;;;;;;;;;5000614;28;20038;-84
2022/07/22 03:20:25;;;;;;;8.40;4.97;;;;;;;;;;5002474;28;20476;-84
2022/07/22 03:22:50;;;;;;;7.30;4.88;;;;;;;;;;5000257;28;20042;-84
2022/07/22 03:25:16;;;;;;;7.70;5.15;;;;;;;;;;5001321;28;20041;-83
2022/07/22 03:27:41;;;;;;;6.25;4.63;;;;;;;;;;5003639;28;20778;-83
2022/07/22 03:30:07;;;;;;;6.72;4.53;;;;;;;;;;5005009;28;20033;-83
2022/07/22 03:32:33;;;;;;;7.15;5.30;;;;;;;;;;5014877;28;20399;-84
2022/07/22 03:34:58;;;;;;;7.32;4.82;;;;;;;;;;4999601;28;20132;-84
2022/07/22 03:37:23;;;;;;;6.63;4.57;;;;;;;;;;4997911;28;20113;-84
2022/07/22 03:39:49;;;;;;;7.38;4.70;;;;;;;;;;5017305;28;20389;-84
2022/07/22 03:42:14;;;;;;;6.80;4.88;;;;;;;;;;5014600;28;20049;-84
2022/07/22 03:44:40;;;;;;;6.32;4.25;;;;;;;;;;5003358;28;20041;-83
2022/07/22 03:47:05;;;;;;;8.10;5.60;;;;;;;;;;4997002;28;20042;-84
2022/07/22 03:49:31;;;;;;;7.07;4.90;;;;;;;;;;5000264;28;20072;-84
2022/07/22 03:51:57;;;;;;;8.77;5.07;;;;;;;;;;5004429;28;20049;-84
2022/07/22 03:54:23;;;;;;;7.38;5.47;;;;;;;;;;5004166;28;20037;-85
2022/07/22 03:56:48;;;;;;;7.95;5.07;;;;;;;;;;5006955;28;20121;-84
2022/07/22 03:59:15;;;;;;;8.65;5.47;;;;;;;;;;5014578;28;20172;-83
2022/07/22 04:01:41;;;;;;;8.52;5.80;;;;;;;;;;5016925;28;20117;-83
2022/07/22 04:04:06;;;;;;;7.18;5.25;;;;;;;;;;5004119;28;20125;-83
2022/07/22 04:06:32;;;;;;;9.32;5.90;;;;;;;;;;4998837;28;20040;-84
2022/07/22 04:08:57;;;;;;;7.68;5.28;;;;;;;;;;5000444;28;20111;-84
2022/07/22 04:11:22;;;;;;;8.60;5.70;;;;;;;;;;5014527;28;20030;-84
2022/07/22 04:13:48;;;;;;;7.47;5.22;;;;;;;;;;5002611;28;20036;-83
2022/07/22 04:16:13;;;;;;;8.50;6.00;;;;;;;;;;5004733;28;20432;-84
2022/07/22 04:18:38;;;;;;;8.32;5.70;;;;;;;;;;4985712;28;20209;-85
2022/07/22 04:21:04;;;;;;;9.82;6.00;;;;;;;;;;5000086;28;20045;-84
2022/07/22 04:23:29;;;;;;;7.57;5.60;;;;;;;;;;5000511;28;20038;-85
2022/07/22 04:25:55;;;;;;;8.60;6.10;;;;;;;;;;5005270;28;20048;-84
2022/07/22 04:28:20;;;;;;;8.25;5.68;;;;;;;;;;5000272;28;20037;-84
2022/07/22 04:30:46;;;;;;;9.15;5.78;;;;;;;;;;5006771;28;20057;-84
2022/07/22 04:33:11;;;;;;;8.35;5.85;;;;;;;;;;4985168;28;20034;-84
2022/07/22 04:35:37;;;;;;;7.63;5.20;;;;;;;;;;5014788;28;20038;-84
2022/07/22 04:38:02;;;;;;;8.80;6.13;;;;;;;;;;5009538;28;20038;-84
2022/07/22 04:40:28;;;;;;;7.95;5.68;;;;;;;;;;5013195;28;20136;-84
2022/07/22 04:42:53;;;;;;;8.68;5.88;;;;;;;;;;5014528;28;20038;-84
2022/07/22 04:45:19;;;;;;;8.60;6.25;;;;;;;;;;5002649;28;20121;-84
2022/07/22 04:47:44;;;;;;;9.05;5.68;;;;;;;;;;4999292;28;20140;-83
2022/07/22 04:50:09;;;;;;;7.80;5.63;;;;;;;;;;4986549;28;20045;-84
2022/07/22 04:52:35;;;;;;;8.73;5.88;;;;;;;;;;4998422;28;20056;-84
2022/07/22 04:55:00;;;;;;;7.50;5.43;;;;;;;;;;5001757;28;20189;-83
2022/07/22 04:57:26;;;;;;;8.32;6.05;;;;;;;;;;5015308;28;20034;-84
2022/07/22 04:59:52;;;;;;;8.75;6.38;;;;;;;;;;5000278;28;20037;-84
2022/07/22 05:02:18;;;;;;;8.75;5.75;;;;;;;;;;4999461;28;20040;-84
2022/07/22 05:04:43;;;;;;;8.50;5.90;;;;;;;;;;4999049;28;20042;-84
2022/07/22 05:07:08;;;;;;;7.95;5.40;;;;;;;;;;5002302;28;20383;-84
2022/07/22 05:09:34;;;;;;;8.20;6.10;;;;;;;;;;4996937;28;20124;-84
2022/07/22 05:11:59;;;;;;;8.32;5.43;;;;;;;;;;5011920;28;20038;-84
2022/07/22 05:14:24;;;;;;;8.60;6.50;;;;;;;;;;4993925;28;20049;-84
2022/07/22 05:16:50;;;;;;;8.60;5.75;;;;;;;;;;4996612;28;20029;-85
2022/07/22 05:19:15;;;;;;;9.05;5.80;;;;;;;;;;4998413;28;20512;-85
2022/07/22 05:21:40;;;;;;;9.10;6.13;;;;;;;;;;5005849;28;20117;-84
2022/07/22 05:24:06;;;;;;;8.10;6.18;;;;;;;;;;5000207;28;20029;-84
2022/07/22 05:26:33;;;;;;;8.43;6.65;;;;;;;;;;5013820;28;20068;-83
2022/07/22 05:28:58;;;;;;;8.13;5.93;;;;;;;;;;5006236;28;20038;-84
2022/07/22 05:31:24;;;;;;;8.75;6.18;;;;;;;;;;4995463;28;20038;-83
2022/07/22 05:33:49;;;;;;;8.57;6.43;;;;;;;;;;4994619;28;20065;-84
2022/07/22 05:36:14;;;;;;;9.02;6.28;;;;;;;;;;5011724;28;20217;-83
2022/07/22 05:38:40;;;;;;;8.90;6.18;;;;;;;;;;5013521;28;20374;-84
2022/07/22 05:41:05;;;;;;;8.07;6.15;;;;;;;;;;4995033;28;20393;-83
2022/07/22 05:43:31;;;;;;;9.45;6.57;;;;;;;;;;5012120;28;20033;-84
2022/07/22 05:45:57;;;;;;;7.95;6.13;;;;;;;;;;5009528;28;20038;-84
2022/07/22 05:48:22;;;;;;;9.98;6.07;;;;;;;;;;4997930;28;20033;-84
2022/07/22 05:50:47;;;;;;;9.95;6.00;;;;;;;;;;4999175;28;20531;-84
2022/07/22 05:53:13;;;;;;;8.18;5.63;;;;;;;;;;5014149;28;20034;-83
2022/07/22 05:55:38;;;;;;;10.23;5.93;;;;;;;;;;4997955;28;20605;-85
2022/07/22 05:58:04;;;;;;;8.95;6.35;;;;;;;;;;4997649;28;20509;-84
2022/07/22 06:00:29;;;;;;;9.32;5.78;;;;;;;;;;4999898;28;20162;-84
2022/07/22 06:02:57;;;;;;;8.80;6.47;;;;;;;;;;4999405;28;20045;-84
2022/07/22 06:05:22;;;;;;;8.98;5.80;;;;;;;;;;5006051;28;20084;-84
2022/07/22 06:07:48;;;;;;;7.88;6.10;;;;;;;;;;5013737;28;20507;-84
2022/07/22 06:10:14;;;;;;;7.55;5.80;;;;;;;;;;4998365;28;20080;-86
2022/07/22 06:12:39;;;;;;;7.50;5.50;;;;;;;;;;4983765;28;20044;-85
2022/07/22 06:15:06;;;;;;;7.72;5.45;;;;;;;;;;5016633;28;20120;-84
2022/07/22 06:17:32;;;;;;;10.88;5.75;;;;;;;;;;4996644;28;20497;-84
2022/07/22 06:19:58;;;;;;;7.53;5.40;;;;;;;;;;5006644;28;20049;-85
2022/07/22 06:22:27;;;;;;;7.95;6.18;;;;;;;;;;5016104;28;20370;-84
2022/07/22 06:24:53;;;;;;;8.80;6.22;;;;;;;;;;5024519;28;20386;-85
2022/07/22 06:27:18;;;;;;;7.28;5.43;;;;;;;;;;5015947;28;20049;-84
2022/07/22 06:29:44;;;;;;;7.07;5.35;;;;;;;;;;5011962;28;20037;-85
2022/07/22 06:32:09;;;;;;;9.93;6.28;;;;;;;;;;5006109;28;20489;-84
2022/07/22 06:34:34;;;;;;;9.10;6.53;;;;;;;;;;5015917;28;20041;-84
2022/07/22 06:37:00;;;;;;;8.90;5.90;;;;;;;;;;4999898;28;20049;-83
2022/07/22 06:39:25;;;;;;;7.85;5.75;;;;;;;;;;5011361;28;20378;-85
2022/07/22 06:41:51;;;;;;;7.63;5.82;;;;;;;;;;5007439;28;20041;-84
2022/07/22 06:44:16;;;;;;;8.32;6.15;;;;;;;;;;5012480;28;20034;-84
2022/07/22 06:46:42;;;;;;;9.02;5.80;;;;;;;;;;5010728;28;20037;-83
2022/07/22 06:49:07;;;;;;;9.77;4.90;;;;;;;;;;5012159;28;20091;-84
2022/07/22 06:51:33;;;;;;;8.25;5.25;;;;;;;;;;4983164;28;20034;-85
2022/07/22 06:53:59;;;;;;;7.40;5.28;;;;;;;;;;5000476;28;20060;-86
2022/07/22 06:56:24;;;;;;;7.78;5.00;;;;;;;;;;4997226;28;20077;-85
2022/07/22 06:58:50;;;;;;;7.18;4.80;;;;;;;;;;4995502;28;20042;-85
2022/07/22 07:01:15;;;;;;;7.60;5.47;;;;;;;;;;5004952;28;20037;-85
2022/07/22 07:03:41;;;;;;;6.95;5.13;;;;;;;;;;4994869;28;20378;-85
2022/07/22 07:06:08;;;;;;;6.25;5.00;;;;;;;;;;5000442;28;20043;-85
2022/07/22 07:08:33;;;;;;;7.10;4.93;;;;;;;;;;5000478;28;20040;-83
2022/07/22 07:10:59;;;;;;;7.50;5.47;;;;;;;;;;5012040;28;20041;-82
2022/07/22 07:13:24;;;;;;;7.18;4.82;;;;;;;;;;5013064;28;20029;-83
2022/07/22 07:15:49;;;;;;;6.07;4.30;;;;;;;;;;4998467;28;20428;-83
2022/07/22 07:18:15;;;;;;;6.88;4.65;;;;;;;;;;5013086;28;20049;-84
2022/07/22 07:20:40;;;;;;;6.13;4.35;;;;;;;;;;4980792;28;20450;-84
2022/07/22 07:23:05;;;;;;;5.25;3.80;;;;;;;;;;5004247;28;20034;-84
2022/07/22 07:25:31;;;;;;;7.03;3.95;;;;;;;;;;5011903;28;20037;-84
2022/07/22 07:27:56;;;;;;;6.18;4.18;;;;;;;;;;5004680;28;20493;-84
2022/07/22 07:30:22;;;;;;;5.88;4.18;;;;;;;;;;4998004;28;20497;-84
2022/07/22 07:32:47;;;;;;;4.90;3.80;;;;;;;;;;4998454;28;20034;-85
2022/07/22 07:35:12;;;;;;;7.00;4.10;;;;;;;;;;4998910;28;20041;-83
2022/07/22 07:37:38;;;;;;;5.43;4.13;;;;;;;;;;4999584;28;20071;-84
2022/07/22 07:40:04;;;;;;;5.47;3.90;;;;;;;;;;5001132;28;20103;-85
2022/07/22 07:42:30;;;;;;;5.50;3.58;;;;;;;;;;4997261;28;20038;-84
2022/07/22 07:44:56;;;;;;;5.65;3.92;;;;;;;;;;5005233;28;20046;-84
2022/07/22 07:47:24;;;;;;;5.40;3.85;;;;;;;;;;4999796;28;20045;-84
2022/07/22 07:49:49;;;;;;;5.32;3.85;;;;;;;;;;4996771;28;20041;-83
2022/07/22 07:52:16;;;;;;;6.43;4.00;;;;;;;;;;5011439;28;20034;-84
2022/07/22 07:54:42;;;;;;;5.43;3.88;;;;;;;;;;5017598;28;20042;-82
2022/07/22 07:57:10;;;;;;;4.97;3.63;;;;;;;;;;5000501;28;20069;-84
2022/07/22 07:59:36;;;;;;;5.45;4.03;;;;;;;;;;5004080;28;20049;-85
2022/07/22 08:02:01;;;;;;;5.28;3.22;;;;;;;;;;4986572;28;20791;-84
2022/07/22 08:04:26;;;;;;;4.80;3.50;;;;;;;;;;5004501;28;20033;-84
2022/07/22 08:06:52;;;;;;;4.70;3.08;;;;;;;;;;5012893;28;20034;-83
2022/07/22 08:09:17;;;;;;;5.88;3.30;;;;;;;;;;5001260;28;20124;-84
2022/07/22 08:11:43;;;;;;;4.55;3.08;;;;;;;;;;5013326;28;20045;-83
2022/07/22 08:14:08;;;;;;;5.13;3.55;;;;;;;;;;5001840;28;20396;-83
2022/07/22 08:16:33;;;;;;;5.20;3.50;;;;;;;;;;5007253;28;20033;-83
2022/07/22 08:18:59;;;;;;;4.60;3.28;;;;;;;;;;5000097;28;20092;-84
2022/07/22 08:21:25;;;;;;;4.53;3.25;;;;;;;;;;5008390;28;20145;-83
2022/07/22 08:23:51;;;;;;;4.65;3.35;;;;;;;;;;5016372;28;20489;-83
2022/07/22 08:26:16;;;;;;;4.47;3.35;;;;;;;;;;5013807;28;20038;-84
2022/07/22 08:28:42;;;;;;;4.40;3.22;;;;;;;;;;5005256;28;20468;-83
2022/07/22 08:31:07;;;;;;;4.53;3.00;;;;;;;;;;5000693;28;20040;-83
2022/07/22 08:33:33;;;;;;;4.47;3.00;;;;;;;;;;5013750;28;20042;-84
2022/07/22 08:35:58;;;;;;;4.38;2.90;;;;;;;;;;4997432;28;20520;-83
2022/07/22 08:38:23;;;;;;;4.30;3.10;;;;;;;;;;4991142;28;20040;-84
2022/07/22 08:40:49;;;;;;;4.53;3.00;;;;;;;;;;4998633;28;20124;-84
2022/07/22 08:43:14;;;;;;;5.25;3.15;;;;;;;;;;4984105;28;20045;-84
2022/07/22 08:45:40;;;;;;;3.63;2.50;;;;;;;;;;5013465;28;20661;-84
2022/07/22 08:48:06;;;;;;;5.22;3.10;;;;;;;;;;5000455;28;20417;-83
2022/07/22 08:50:31;;;;;;;3.97;2.80;;;;;;;;;;5001439;28;20057;-84
2022/07/22 08:52:57;;;;;;;4.65;2.92;;;;;;;;;;4998354;28;20050;-83
2022/07/22 08:55:23;;;;;;;3.78;2.65;;;;;;;;;;4995423;28;20489;-84
2022/07/22 08:57:49;;;;;;;4.85;2.97;;;;;;;;;;5006393;28;20040;-83
2022/07/22 09:00:20;;;;;;;4.28;3.00;;;;;;;;;;4997128;28;20037;-84
2022/07/22 09:02:45;;;;;;;3.67;2.50;;;;;;;;;;5016893;28;20046;-83
2022/07/22 09:05:16;;;;;;;4.43;2.83;;;;;;;;;;5005314;28;20045;-84
2022/07/22 09:07:46;;;;;;;4.72;3.25;;;;;;;;;;4991256;28;20041;-84
2022/07/22 09:10:15;;;;;;;5.65;3.00;;;;;;;;;;5001683;28;20441;-84
2022/07/22 09:12:57;;;;;;;5.25;2.95;;;;;;;;;;4998270;28;20037;-85
2022/07/22 09:15:27;;;;;;;4.00;2.83;;;;;;;;;;5013239;28;20042;-84
2022/07/22 09:17:53;;;;;;;4.40;2.85;;;;;;;;;;5000735;28;20046;-84
2022/07/22 09:20:18;;;;;;;4.60;3.10;;;;;;;;;;4999616;28;20390;-85
2022/07/22 09:22:46;;;;;;;6.20;2.78;;;;;;;;;;5013642;28;20045;-83
2022/07/22 09:25:31;;;;;;;4.25;2.72;;;;;;;;;;5016371;28;20120;-84
2022/07/22 09:28:05;;;;;;;5.15;3.33;;;;;;;;;;4997714;28;20095;-84
2022/07/22 09:30:30;;;;;;;5.13;2.58;;;;;;;;;;5022900;28;20569;-84
2022/07/22 09:32:56;;;;;;;3.53;2.30;;;;;;;;;;5014761;28;20124;-84
2022/07/22 09:35:22;;;;;;;3.65;2.28;;;;;;;;;;5000307;28;20041;-83
2022/07/22 09:37:55;;;;;;;3.15;1.88;;;;;;;;;;5006601;28;20164;-84
2022/07/22 09:40:29;;;;;;;3.13;1.98;;;;;;;;;;4997113;28;20822;-85
2022/07/22 09:42:57;;;;;;;4.65;2.08;;;;;;;;;;5001393;28;20395;-84
2022/07/22 09:45:25;;;;;;;3.67;1.75;;;;;;;;;;5005322;28;20107;-84
2022/07/22 09:47:51;;;;;;;2.85;1.88;;;;;;;;;;4999940;28;20536;-84
2022/07/22 09:50:19;;;;;;;3.38;2.20;;;;;;;;;;5014116;28;20192;-83
2022/07/22 09:52:45;;;;;;;2.67;1.73;;;;;;;;;;5010497;28;20041;-83
2022/07/22 09:55:10;;;;;;;3.25;1.55;;;;;;;;;;5015446;28;20401;-83
2022/07/22 09:57:36;;;;;;;2.80;1.75;;;;;;;;;;5011632;28;20076;-84
2022/07/22 10:00:08;;;;;;;3.60;2.00;;;;;;;;;;5007329;28;21263;-84
2022/07/22 10:02:47;;;;;;;3.33;1.98;;;;;;;;;;4999742;28;20142;-83
2022/07/22 10:05:13;;;;;;;3.53;1.80;;;;;;;;;;5013613;28;20099;-84
2022/07/22 10:07:42;;;;;;;3.73;2.00;;;;;;;;;;4999610;28;20041;-84
2022/07/22 10:10:10;;;;;;;3.85;1.80;;;;;;;;;;5009460;28;20275;-83
2022/07/22 10:12:37;;;;;;;3.55;1.85;;;;;;;;;;5006602;28;20034;-84
2022/07/22 10:15:02;;;;;;;3.30;2.03;;;;;;;;;;5005847;28;20064;-85
2022/07/22 10:17:28;;;;;;;3.13;1.98;;;;;;;;;;5004862;28;20401;-85
2022/07/22 10:19:53;;;;;;;3.63;1.90;;;;;;;;;;5002177;28;20044;-85
2022/07/22 10:22:45;;;;;;;3.15;1.90;;;;;;;;;;5013782;28;20511;-85
2022/07/22 10:25:11;;;;;;;2.70;1.73;;;;;;;;;;5014407;28;20065;-83
2022/07/22 10:27:56;;;;;;;3.15;1.55;;;;;;;;;;5011902;28;20509;-84
2022/07/22 10:30:29;;;;;;;2.97;1.73;;;;;;;;;;4999166;28;20050;-84
2022/07/22 10:33:25;;;;;;;3.10;1.70;;;;;;;;;;5021411;28;20042;-85
2022/07/22 10:35:53;;;;;;;2.85;1.90;;;;;;;;;;4994841;28;20042;-85
2022/07/22 10:38:21;;;;;;;4.55;2.30;;;;;;;;;;5022034;28;20041;-85
2022/07/22 10:40:50;;;;;;;2.55;1.52;;;;;;;;;;4998067;28;20504;-85
2022/07/22 10:43:18;;;;;;;3.10;1.73;;;;;;;;;;5022409;28;20041;-84
2022/07/22 10:45:57;;;;;;;3.80;1.80;;;;;;;;;;5003928;28;20057;-84
2022/07/22 10:48:26;;;;;;;3.78;1.70;;;;;;;;;;5001739;28;20045;-85
2022/07/22 10:50:55;;;;;;;4.07;2.58;;;;;;;;;;5018042;28;20045;-84
2022/07/22 10:53:25;;;;;;;2.70;1.50;;;;;;;;;;4995219;28;20029;-86
2022/07/22 10:56:01;;;;;;;2.83;1.60;;;;;;;;;;5010370;28;21122;-85
2022/07/22 10:58:32;;;;;;;4.18;1.70;;;;;;;;;;5022387;28;20038;-85
2022/07/22 11:01:04;;;;;;;4.65;1.95;;;;;;;;;;5016325;28;20108;-84
2022/07/22 11:03:30;;;;;;;3.15;1.80;;;;;;;;;;4989472;28;20038;-84
2022/07/22 11:05:56;;;;;;;2.85;1.73;;;;;;;;;;5012685;28;20072;-84
2022/07/22 11:08:22;;;;;;;3.28;2.03;;;;;;;;;;5014404;28;20065;-84
2022/07/22 11:10:49;;;;;;;3.33;1.92;;;;;;;;;;4999100;28;20129;-83
2022/07/22 11:13:32;;;;;;;3.08;1.90;;;;;;;;;;5007885;28;20034;-83
2022/07/22 11:16:23;;;;;;;3.60;1.90;;;;;;;;;;5010782;28;20040;-83
2022/07/22 11:18:59;;;;;;;3.90;2.28;;;;;;;;;;5014423;28;20038;-85
2022/07/22 11:21:27;;;;;;;3.25;2.20;;;;;;;;;;5013231;28;20061;-84
2022/07/22 11:23:54;;;;;;;3.83;2.13;;;;;;;;;;4995564;28;20523;-85
2022/07/22 11:26:26;;;;;;;3.40;2.00;;;;;;;;;;4996992;28;20505;-84
2022/07/22 11:28:51;;;;;;;3.70;2.40;;;;;;;;;;5012291;28;20629;-84
2022/07/22 11:31:18;;;;;;;3.78;2.22;;;;;;;;;;5015079;28;20037;-85
2022/07/22 11:33:46;;;;;;;3.00;1.83;;;;;;;;;;4984081;28;20044;-83
2022/07/22 11:36:12;;;;;;;3.30;1.85;;;;;;;;;;5008801;28;20034;-84
2022/07/22 11:38:49;;;;;;;4.07;1.80;;;;;;;;;;5016540;28;20095;-84
2022/07/22 11:41:18;;;;;;;3.42;1.90;;;;;;;;;;5009412;28;20060;-84
2022/07/22 11:43:46;;;;;;;3.20;1.88;;;;;;;;;;5015892;28;20117;-83
2022/07/22 11:46:12;;;;;;;3.33;1.92;;;;;;;;;;5008177;28;20489;-84
2022/07/22 11:48:37;;;;;;;2.75;1.63;;;;;;;;;;5000038;28;20171;-84
2022/07/22 11:51:04;;;;;;;3.35;1.70;;;;;;;;;;5001736;28;20120;-85
2022/07/22 11:53:30;;;;;;;2.47;1.60;;;;;;;;;;5008635;28;20046;-84
2022/07/22 11:56:04;;;;;;;3.08;1.60;;;;;;;;;;4999323;28;20050;-84
2022/07/22 11:58:44;;;;;;;3.05;1.65;;;;;;;;;;5016947;28;20494;-84
2022/07/22 12:01:11;;;;;;;2.67;1.50;;;;;;;;;;5015369;28;20045;-84
2022/07/22 12:03:39;;;;;;;2.60;1.60;;;;;;;;;;4999918;28;20069;-84
2022/07/22 12:06:06;;;;;;;;;;;;;;;;;;5002853;28;20040;-85
2022/07/22 12:08:32;;;;;;;;;;;;;;;;;;5025990;28;20485;-84
2022/07/22 12:11:00;;;;;;;2.30;1.30;;;;;;;;;;4997305;28;19963;-84
2022/07/22 12:13:31;;;;;;;2.13;1.20;;;;;;;;;;4997748;28;20061;-84
2022/07/22 12:15:57;;;;;;;2.70;1.25;;;;;;;;;;5017343;28;20061;-85
2022/07/22 12:18:24;;;;;;;1.90;1.05;;;;;;;;;;5003375;28;20068;-85
2022/07/22 12:20:50;;;;;;;2.22;1.20;;;;;;;;;;5010892;28;20505;-85
2022/07/22 12:23:16;;;;;;;2.45;1.40;;;;;;;;;;5001219;28;20852;-84
2022/07/22 12:25:51;;;;;;;2.45;1.30;;;;;;;;;;4998561;28;20034;-84
2022/07/22 12:28:16;;;;;;;2.10;1.20;;;;;;;;;;5000723;28;20045;-85
2022/07/22 12:30:42;;;;;;;2.42;1.38;;;;;;;;;;5002503;28;20042;-83
2022/07/22 12:33:15;;;;;;;2.50;1.30;;;;;;;;;;5007355;28;20037;-84
2022/07/22 12:35:41;;;;;;;3.35;1.20;;;;;;;;;;5007114;28;20565;-84
2022/07/22 12:38:08;;;;;;;2.17;1.10;;;;;;;;;;5002351;28;20541;-85
2022/07/22 12:40:34;;;;;;;2.30;1.20;;;;;;;;;;5002868;28;20047;-84
2022/07/22 12:43:07;;;;;;;2.17;1.27;;;;;;;;;;5017760;28;20030;-84
2022/07/22 12:45:37;;;;;;;2.15;1.15;;;;;;;;;;5003122;28;20041;-83
2022/07/22 12:48:06;;;;;;;2.47;1.30;;;;;;;;;;5008006;28;20473;-84
2022/07/22 12:50:34;;;;;;;2.03;1.15;;;;;;;;;;5016445;28;20083;-84
2022/07/22 12:53:02;;;;;;;2.22;1.20;;;;;;;;;;5013156;28;20164;-84
2022/07/22 12:55:28;;;;;;;2.25;1.20;;;;;;;;;;5016302;28;20050;-84
2022/07/22 12:57:54;;;;;;;2.42;1.30;;;;;;;;;;4985797;28;20100;-85
2022/07/22 13:00:25;;;;;;;2.10;1.20;;;;;;;;;;4999141;28;20120;-84
2022/07/22 13:02:50;;;;;;;2.50;1.30;;;;;;;;;;5017639;28;20046;-84
2022/07/22 13:05:16;;;;;;;2.85;1.20;;;;;;;;;;4983587;28;20623;-85
2022/07/22 13:07:42;;;;;;;2.42;1.13;;;;;;;;;;5003577;28;20529;-84
2022/07/22 13:10:08;;;;;;;2.28;1.17;;;;;;;;;;5007401;28;20034;-83
2022/07/22 13:12:33;;;;;;;2.13;1.23;;;;;;;;;;5006684;28;20124;-85
2022/07/22 13:15:01;;;;;;;2.63;1.25;;;;;;;;;;5004880;28;20516;-84
2022/07/22 13:17:26;;;;;;;2.42;1.27;;;;;;;;;;5006237;28;20030;-84
2022/07/22 13:19:52;;;;;;;1.92;1.10;;;;;;;;;;4998697;28;20033;-85
2022/07/22 13:22:17;;;;;;;2.92;1.05;;;;;;;;;;4997707;28;20041;-85
2022/07/22 13:24:43;;;;;;;2.20;1.08;;;;;;;;;;4999972;28;20515;-84
2022/07/22 13:27:08;;;;;;;2.83;1.40;;;;;;;;;;5013216;28;20037;-84
2022/07/22 13:29:33;;;;;;;2.10;1.00;;;;;;;;;;5013124;28;20069;-85
2022/07/22 13:31:59;;;;;;;2.05;1.10;;;;;;;;;;4995459;28;20129;-84
2022/07/22 13:34:24;;;;;;;2.35;1.10;;;;;;;;;;4995687;28;20069;-86
2022/07/22 13:36:49;;;;;;;2.72;1.40;;;;;;;;;;4999706;28;20038;-84
2022/07/22 13:39:15;;;;;;;2.63;1.23;;;;;;;;;;5002527;28;20582;-85
2022/07/22 13:41:40;;;;;;;3.47;1.10;;;;;;;;;;5007240;28;20567;-84
2022/07/22 13:44:08;;;;;;;8.35;1.60;;;;;;;;;;5004824;28;20528;-84
2022/07/22 13:46:37;;;;;;;2.55;1.00;;;;;;;;;;4989480;28;20038;-85
2022/07/22 13:49:03;;;;;;;2.75;1.30;;;;;;;;;;5005522;28;20055;-84
2022/07/22 13:51:28;;;;;;;1.92;0.98;;;;;;;;;;4999082;28;20516;-84
2022/07/22 13:53:53;;;;;;;2.00;1.00;;;;;;;;;;4999571;28;20564;-85
2022/07/22 13:56:19;;;;;;;2.47;1.17;;;;;;;;;;4997314;28;20049;-84
2022/07/22 13:58:44;;;;;;;3.03;1.00;;;;;;;;;;4998450;28;20037;-85
2022/07/22 14:01:11;;;;;;;1.98;1.00;;;;;;;;;;4992446;28;20041;-85
2022/07/22 14:03:37;;;;;;;2.30;0.93;;;;;;;;;;4989983;28;20049;-85
2022/07/22 14:06:04;;;;;;;2.63;0.90;;;;;;;;;;4992392;28;20046;-84
2022/07/22 14:08:29;;;;;;;2.78;0.90;;;;;;;;;;5004516;28;20037;-84
2022/07/22 14:10:55;;;;;;;1.60;0.82;;;;;;;;;;4998992;28;20459;-85
2022/07/22 14:13:20;;;;;;;2.00;1.02;;;;;;;;;;5013370;28;20485;-85
2022/07/22 14:15:45;;;;;;;1.83;0.90;;;;;;;;;;4996495;28;20069;-84
2022/07/22 14:18:11;;;;;;;2.03;1.00;;;;;;;;;;4999939;28;20784;-84
2022/07/22 14:20:37;;;;;;;1.90;0.90;;;;;;;;;;4983429;28;20405;-85
2022/07/22 14:23:04;;;;;;;3.10;1.05;;;;;;;;;;4997076;28;20670;-85
2022/07/22 14:25:30;;;;;;;2.33;1.00;;;;;;;;;;5010475;28;20050;-84
2022/07/22 14:27:55;;;;;;;1.65;0.85;;;;;;;;;;5000378;28;20113;-85
2022/07/22 14:30:21;;;;;;;1.88;0.93;;;;;;;;;;5000657;28;20038;-85
2022/07/22 14:32:46;;;;;;;2.10;0.90;;;;;;;;;;4998580;28;20145;-85
2022/07/22 14:35:11;;;;;;;1.52;0.80;;;;;;;;;;5000592;28;20029;-84
2022/07/22 14:37:37;;;;;;;1.92;0.90;;;;;;;;;;4996746;28;20034;-85
2022/07/22 14:40:04;;;;;;;2.50;1.00;;;;;;;;;;4998835;28;20038;-85